Boston Ravine, California
Current Conditions -  °F | °C
As of 11:20 AM on Saturday 20 Dec 2014 (Local Time) from KGOO Reporting Station
Overcast Overcast  
Wind Chill: 39°   Ceiling: 100
Heat Index: 45°   Visibility: 0mi
Dew Point: 45°   Wind: 10mph
Humidity: 100%   Direction: 150°SSE
Pressure: 30.19"   Gusts: NA
Location:  39.2183°N, 120.924°W
Report Text: KGOO 201920Z AUTO 15009KT 120V180 M1/4SM OVC001 07/07 A3019 RMK AO1
Loading
Personal Weather Stations






























Interactive Weather Map New forecast layout! Learn more

10-Day Weather Forecast

Advertisements
Track Severe Weather on mobile